Time;durP1;ratioP1;P1;durP2;ratioP2;P2;SDS_P1;SDS_P2;PMS_P1;PMS_P2;Temp;Humidity;BMP_temperature;BMP_pressure;BME280_temperature;BME280_humidity;BME280_pressure;Samples;Min_cycle;Max_cycle;Signal;HPM_P1;HPM_P2
2022/12/17 13:06:55;;;;;;;25.68;12.33;;;;;;;3.08;100.00;99712.15;1589788;90;21238;-58
2022/12/17 13:09:32;;;;;;;26.37;12.90;;;;;;;3.08;100.00;99706.23;1596522;89;21693;-59
2022/12/17 13:12:12;;;;;;;24.27;11.65;;;;;;;3.03;100.00;99705.88;1596038;89;21170;-60
2022/12/17 13:15:08;;;;;;;20.72;10.43;;;;;;;3.03;100.00;99710.45;1613330;88;21177;-59
2022/12/17 13:17:42;;;;;;;23.30;11.97;;;;;;;3.06;100.00;99712.82;1621043;88;21319;-58
2022/12/17 13:20:28;;;;;;;24.70;12.63;;;;;;;3.04;100.00;99727.03;1624168;88;21149;-58
2022/12/17 13:23:16;;;;;;;22.58;10.50;;;;;;;3.03;100.00;99728.04;1613412;88;21224;-57
2022/12/17 13:25:45;;;;;;;20.85;10.45;;;;;;;3.01;100.00;99739.53;1625671;85;21208;-59
2022/12/17 13:28:29;;;;;;;22.82;10.80;;;;;;;3.00;100.00;99732.43;1644331;86;21296;-59
2022/12/17 13:31:04;;;;;;;20.45;10.13;;;;;;;2.98;100.00;99734.45;1621928;88;21175;-58
2022/12/17 13:33:57;;;;;;;21.60;11.12;;;;;;;3.00;100.00;99722.45;1619989;88;21265;-58
2022/12/17 13:36:53;;;;;;;24.30;11.95;;;;;;;3.01;100.00;99709.77;1655606;86;21195;-60
2022/12/17 13:39:57;;;;;;;24.87;11.60;;;;;;;2.98;100.00;99697.92;1660886;86;21533;-59
2022/12/17 13:42:31;;;;;;;24.60;11.57;;;;;;;3.00;100.00;99690.48;1656118;86;21205;-59
2022/12/17 13:45:00;;;;;;;28.38;13.53;;;;;;;3.04;100.00;99683.73;1653651;86;21124;-59
2022/12/17 13:47:34;;;;;;;25.52;12.85;;;;;;;3.06;100.00;99685.25;1652379;86;21205;-59
2022/12/17 13:50:05;;;;;;;23.00;11.22;;;;;;;3.10;100.00;99677.14;1654320;86;21179;-61
2022/12/17 13:52:36;;;;;;;21.30;10.28;;;;;;;3.13;100.00;99663.78;1653269;86;21187;-59
2022/12/17 13:55:08;;;;;;;21.48;11.65;;;;;;;3.14;100.00;99653.30;1656216;86;21654;-60
2022/12/17 13:57:40;;;;;;;34.90;16.60;;;;;;;3.14;100.00;99665.47;1654517;86;21632;-61
2022/12/17 14:00:28;;;;;;;30.15;14.18;;;;;;;3.15;100.00;99672.06;1621759;86;21223;-60
2022/12/17 14:02:59;;;;;;;25.75;12.63;;;;;;;3.17;100.00;99681.37;1643515;86;21176;-60
2022/12/17 14:05:36;;;;;;;25.48;12.13;;;;;;;3.15;100.00;99679.34;1652226;86;21140;-61
2022/12/17 14:08:05;;;;;;;30.35;13.85;;;;;;;3.15;100.00;99686.95;1655152;86;21116;-60
2022/12/17 14:10:34;;;;;;;25.40;13.08;;;;;;;3.14;100.00;99688.47;1654319;86;21807;-60
2022/12/17 14:13:09;;;;;;;26.05;13.15;;;;;;;3.11;100.00;99684.25;1654841;86;21171;-61
2022/12/17 14:15:40;;;;;;;22.67;12.13;;;;;;;3.10;100.00;99676.30;1643052;87;21563;-61
2022/12/17 14:18:13;;;;;;;25.32;11.33;;;;;;;3.09;100.00;99655.66;1642494;86;21176;-62
2022/12/17 14:20:42;;;;;;;25.72;13.20;;;;;;;3.06;100.00;99646.52;1653641;86;21112;-59
2022/12/17 14:23:21;;;;;;;31.73;15.15;;;;;;;3.05;100.00;99655.66;1655450;86;21176;-59
2022/12/17 14:25:49;;;;;;;31.20;15.40;;;;;;;3.06;100.00;99660.05;1652311;86;21237;-60
2022/12/17 14:28:35;;;;;;;33.88;16.15;;;;;;;3.05;100.00;99657.85;1652925;86;21199;-59
2022/12/17 14:31:15;;;;;;;34.23;16.20;;;;;;;3.05;100.00;99667.33;1654650;86;21160;-59
2022/12/17 14:33:47;;;;;;;29.85;15.50;;;;;;;3.05;100.00;99654.30;1653028;86;21611;-59
2022/12/17 14:36:22;;;;;;;31.27;15.90;;;;;;;3.03;100.00;99650.41;1655440;86;21148;-59
2022/12/17 14:38:59;;;;;;;30.50;14.93;;;;;;;3.03;100.00;99649.56;1654659;86;21602;-58
2022/12/17 14:44:30;;;;;;;23.95;12.58;;;;;;;3.02;100.00;99651.93;1653409;86;21567;-59
2022/12/17 14:47:21;;;;;;;27.80;13.13;;;;;;;3.01;100.00;99648.89;1637974;87;21634;-59
2022/12/17 14:50:05;;;;;;;22.37;10.85;;;;;;;2.99;100.00;99645.50;1652141;87;21173;-59
2022/12/17 14:52:43;;;;;;;21.30;10.43;;;;;;;2.96;100.00;99646.68;1654331;86;21210;-60
2022/12/17 14:55:41;;;;;;;14.23;7.83;;;;;;;2.95;100.00;99651.75;1654673;86;21237;-61
2022/12/17 14:58:17;;;;;;;17.52;10.05;;;;;;;2.96;100.00;99653.95;1653511;86;21191;-60
2022/12/17 15:00:52;;;;;;;18.48;9.58;;;;;;;2.95;100.00;99666.64;1654947;86;21681;-61
2022/12/17 15:03:32;;;;;;;15.72;9.03;;;;;;;2.95;100.00;99671.20;1650565;86;21644;-60
2022/12/17 15:06:09;;;;;;;18.50;8.85;;;;;;;2.96;100.00;99689.13;1652301;85;21187;-61
2022/12/17 15:08:42;;;;;;;19.67;10.00;;;;;;;2.95;100.00;99682.02;1654830;85;21214;-60
2022/12/17 15:11:14;;;;;;;19.15;10.18;;;;;;;2.92;100.00;99683.71;1656536;86;21148;-61
2022/12/17 15:13:44;;;;;;;20.15;10.53;;;;;;;2.92;100.00;99693.18;1653305;86;21191;-61
2022/12/17 15:16:21;;;;;;;25.52;11.97;;;;;;;2.91;100.00;99693.69;1654680;86;21214;-60
2022/12/17 15:18:59;;;;;;;26.35;12.03;;;;;;;2.89;100.00;99689.45;1655830;86;21251;-58
2022/12/17 15:21:30;;;;;;;25.00;12.40;;;;;;;2.86;100.00;99682.01;1655003;86;21171;-60
2022/12/17 15:24:03;;;;;;;27.20;11.73;;;;;;;2.86;100.00;99695.53;1643963;87;21260;-60
2022/12/17 15:26:34;;;;;;;23.40;12.28;;;;;;;2.87;100.00;99708.55;1643881;87;21207;-58
2022/12/17 15:29:05;;;;;;;21.68;12.53;;;;;;;2.86;100.00;99705.00;1655017;86;21612;-57
2022/12/17 15:31:34;;;;;;;23.20;11.55;;;;;;;2.87;100.00;99711.27;1654413;86;21136;-58
2022/12/17 15:34:06;;;;;;;25.70;12.13;;;;;;;2.92;100.00;99708.06;1653794;86;21194;-59
2022/12/17 15:36:37;;;;;;;30.85;13.13;;;;;;;2.94;100.00;99710.09;1654671;86;21211;-59
2022/12/17 15:39:08;;;;;;;34.73;15.68;;;;;;;2.94;100.00;99733.09;1654788;86;21148;-59
2022/12/17 15:44:27;;;;;;;32.53;14.68;;;;;;;2.83;100.00;99749.97;1656127;86;21688;-58
2022/12/17 15:46:57;;;;;;;25.30;11.78;;;;;;;2.78;100.00;99746.06;1654233;86;21175;-59
2022/12/17 15:49:28;;;;;;;20.85;10.48;;;;;;;2.77;100.00;99750.63;1652967;86;21100;-60
2022/12/17 15:51:59;;;;;;;16.85;8.55;;;;;;;2.76;100.00;99750.28;1654583;86;21136;-60
2022/12/17 15:54:30;;;;;;;18.35;8.88;;;;;;;2.76;100.00;99754.84;1654051;86;21152;-61
2022/12/17 15:56:59;;;;;;;20.00;10.70;;;;;;;2.75;100.00;99732.87;1654310;86;21112;-59
2022/12/17 15:59:32;;;;;;;18.75;8.78;;;;;;;2.71;100.00;99714.77;1654298;86;21140;-58
2022/12/17 16:02:01;;;;;;;15.48;8.18;;;;;;;2.72;100.00;99711.05;1606180;88;21136;-57
2022/12/17 16:04:33;;;;;;;16.40;8.18;;;;;;;2.71;100.00;99712.06;1613125;88;21220;-56
2022/12/17 16:07:03;;;;;;;21.33;9.08;;;;;;;2.68;100.00;99717.80;1614238;88;21615;-57
2022/12/17 16:09:33;;;;;;;18.15;9.08;;;;;;;2.65;100.00;99724.89;1616928;88;21169;-58
2022/12/17 16:12:03;;;;;;;22.42;10.10;;;;;;;2.64;100.00;99723.70;1612163;88;21658;-57
2022/12/17 16:14:32;;;;;;;27.85;12.03;;;;;;;2.62;100.00;99734.69;1612383;88;21201;-57
2022/12/17 16:17:01;;;;;;;28.00;12.60;;;;;;;2.58;100.00;99733.79;1614871;88;21215;-58
2022/12/17 16:19:31;;;;;;;31.65;12.88;;;;;;;2.54;100.00;99741.37;1594515;88;21158;-58
2022/12/17 16:22:00;;;;;;;25.72;10.95;;;;;;;2.52;100.00;99742.89;1621307;87;21156;-58
2022/12/17 16:24:30;;;;;;;18.55;8.65;;;;;;;2.52;100.00;99745.59;1612302;88;21153;-58
2022/12/17 16:26:59;;;;;;;18.85;9.00;;;;;;;2.51;100.00;99757.92;1614830;88;21197;-57
2022/12/17 16:29:30;;;;;;;18.62;7.97;;;;;;;2.52;100.00;99767.73;1613885;88;21145;-57
2022/12/17 16:31:59;;;;;;;13.93;7.12;;;;;;;2.49;100.00;99770.76;1616183;88;21623;-60
2022/12/17 16:34:28;;;;;;;15.80;7.58;;;;;;;2.44;100.00;99765.84;1612206;88;21156;-58
2022/12/17 16:37:00;;;;;;;16.80;8.08;;;;;;;2.43;100.00;99765.49;1615592;88;21153;-58
2022/12/17 16:39:30;;;;;;;17.65;8.65;;;;;;;2.41;100.00;99769.37;1613511;88;21241;-57
2022/12/17 16:41:58;;;;;;;21.93;9.50;;;;;;;2.37;100.00;99772.05;1613488;88;21164;-59
2022/12/17 16:44:27;;;;;;;25.30;10.53;;;;;;;2.35;100.00;99767.30;1612173;88;21165;-60
2022/12/17 16:46:56;;;;;;;21.65;9.65;;;;;;;2.33;100.00;99745.84;1613855;88;21184;-58
2022/12/17 16:49:27;;;;;;;19.75;8.68;;;;;;;2.36;100.00;99754.14;1614284;88;21622;-58
2022/12/17 16:51:56;;;;;;;20.85;8.55;;;;;;;2.37;100.00;99762.59;1612125;88;21156;-59
2022/12/17 16:54:29;;;;;;;23.12;10.00;;;;;;;2.37;100.00;99766.14;1612078;88;21226;-59
2022/12/17 16:57:00;;;;;;;20.50;9.55;;;;;;;2.35;100.00;99771.36;1613741;88;21600;-59
2022/12/17 16:59:49;;;;;;;22.93;10.13;;;;;;;2.36;100.00;99787.92;1658129;84;21619;-59
2022/12/17 17:02:18;;;;;;;16.35;7.55;;;;;;;2.32;100.00;99804.12;1659364;85;21159;-59
2022/12/17 17:04:47;;;;;;;14.03;6.90;;;;;;;2.28;100.00;99809.00;1663750;85;21178;-59
2022/12/17 17:07:16;;;;;;;11.05;5.00;;;;;;;2.28;100.00;99810.84;1668640;85;21186;-58
2022/12/17 17:09:45;;;;;;;17.48;7.90;;;;;;;2.28;100.00;99810.84;1671103;85;21151;-59
2022/12/17 17:12:15;;;;;;;13.88;6.05;;;;;;;2.23;100.00;99808.63;1671449;85;21637;-60
2022/12/17 17:14:46;;;;;;;11.65;5.67;;;;;;;2.20;100.00;99792.73;1693300;84;21527;-59
2022/12/17 17:17:15;;;;;;;7.53;4.58;;;;;;;2.21;100.00;99798.48;1689553;84;21140;-60
2022/12/17 17:19:44;;;;;;;6.62;3.95;;;;;;;2.19;100.00;99812.15;1690109;84;21535;-59
2022/12/17 17:22:13;;;;;;;7.15;3.67;;;;;;;2.19;100.00;99815.35;1684672;84;21562;-59
2022/12/17 17:24:43;;;;;;;7.20;4.28;;;;;;;2.13;100.00;99819.54;1686235;84;21159;-59
2022/12/17 17:27:12;;;;;;;7.70;4.62;;;;;;;2.10;100.00;99820.36;1693341;84;21130;-61
2022/12/17 17:29:41;;;;;;;6.47;3.65;;;;;;;2.07;100.00;99822.88;1690495;84;21157;-59
2022/12/17 17:32:09;;;;;;;4.78;2.98;;;;;;;2.06;100.00;99827.92;1672606;85;21179;-59
2022/12/17 17:34:40;;;;;;;7.42;3.70;;;;;;;2.04;100.00;99826.39;1663932;85;21604;-60
2022/12/17 17:37:10;;;;;;;5.12;2.95;;;;;;;2.00;100.00;99826.36;1656806;85;21222;-59
2022/12/17 17:39:38;;;;;;;5.28;3.50;;;;;;;1.99;100.00;99835.47;1663038;85;21209;-60
2022/12/17 17:42:07;;;;;;;5.15;3.22;;;;;;;1.96;100.00;99825.83;1676339;85;21188;-60
2022/12/17 17:44:36;;;;;;;7.30;3.87;;;;;;;1.96;100.00;99842.53;1672667;85;21163;-59
2022/12/17 17:47:04;;;;;;;6.03;3.35;;;;;;;1.93;100.00;99830.16;1659621;85;21155;-59
2022/12/17 17:49:34;;;;;;;8.00;4.28;;;;;;;1.89;100.00;99837.72;1667002;85;21328;-59
2022/12/17 17:52:02;;;;;;;6.33;3.98;;;;;;;1.88;100.00;99833.83;1652952;85;21210;-60
2022/12/17 17:54:33;;;;;;;7.80;3.83;;;;;;;1.89;100.00;99851.23;1673714;85;21213;-59
2022/12/17 17:57:02;;;;;;;5.20;3.15;;;;;;;1.90;100.00;99848.03;1670833;85;21155;-59
2022/12/17 17:59:31;;;;;;;6.12;3.62;;;;;;;1.87;100.00;99846.48;1667347;85;21157;-59
2022/12/17 18:02:02;;;;;;;9.18;4.30;;;;;;;1.82;100.00;99852.01;1669128;85;21151;-60
2022/12/17 18:04:32;;;;;;;6.45;3.52;;;;;;;1.79;100.00;99860.42;1664814;85;21151;-59
2022/12/17 18:07:01;;;;;;;8.08;3.67;;;;;;;1.77;100.00;99853.83;1677378;85;21178;-60
2022/12/17 18:09:33;;;;;;;6.87;3.72;;;;;;;1.74;100.00;99888.39;1618450;88;21131;-61
2022/12/17 18:13:53;;;;;;;5.65;3.00;;;;;;;1.71;100.00;99894.09;1621712;88;21629;-60
2022/12/17 18:14:33;;;;;;;3.10;2.20;;;;;;;1.71;100.00;99893.59;1619308;88;21214;-60
2022/12/17 18:17:06;;;;;;;4.53;2.30;;;;;;;1.72;100.00;99906.60;1618378;88;21667;-59
2022/12/17 18:19:34;;;;;;;3.40;2.02;;;;;;;1.70;100.00;99914.85;1621288;87;21211;-60
2022/12/17 18:22:03;;;;;;;3.83;2.17;;;;;;;1.73;100.00;99919.10;1622696;88;21158;-60
2022/12/17 18:24:34;;;;;;;4.08;1.98;;;;;;;1.74;100.00;99916.75;1624114;87;21616;-58
2022/12/17 18:27:02;;;;;;;5.53;2.50;;;;;;;1.74;100.00;99910.84;1633868;87;21184;-60
2022/12/17 18:29:33;;;;;;;9.33;3.72;;;;;;;1.74;100.00;99907.30;1652455;85;21139;-59
2022/12/17 18:32:02;;;;;;;10.50;4.28;;;;;;;1.78;100.00;99915.44;1663425;85;21178;-60
2022/12/17 18:34:34;;;;;;;10.63;4.03;;;;;;;1.80;100.00;99930.99;1678000;85;21632;-58
2022/12/17 18:37:04;;;;;;;11.43;4.28;;;;;;;1.77;100.00;99943.45;1670948;84;21274;-60
2022/12/17 18:39:33;;;;;;;9.40;4.55;;;;;;;1.74;100.00;99937.85;1667872;85;21170;-60
2022/12/17 18:44:49;;;;;;;14.65;5.12;;;;;;;1.73;100.00;99951.01;1684636;84;21205;-59
2022/12/17 18:47:18;;;;;;;11.40;4.67;;;;;;;1.71;100.00;99965.16;1694759;84;21154;-60
2022/12/17 18:49:47;;;;;;;7.47;3.20;;;;;;;1.70;100.00;99959.41;1693664;84;21268;-60
2022/12/17 18:52:16;;;;;;;4.45;2.10;;;;;;;1.69;100.00;99984.72;1701404;84;21565;-60
2022/12/17 18:54:45;;;;;;;7.70;3.00;;;;;;;1.68;100.00;99984.87;1696518;83;21135;-60
2022/12/17 18:57:15;;;;;;;5.33;2.98;;;;;;;1.67;100.00;99992.63;1684560;84;21170;-60
2022/12/17 18:59:44;;;;;;;3.67;2.15;;;;;;;1.64;100.00;99975.38;1685142;84;21561;-59
2022/12/17 19:02:13;;;;;;;4.22;1.95;;;;;;;1.61;100.00;99990.02;1687552;84;21233;-59
2022/12/17 19:04:43;;;;;;;5.50;2.35;;;;;;;1.60;100.00;99996.42;1696979;84;21585;-60
2022/12/17 19:07:11;;;;;;;4.45;2.00;;;;;;;1.60;100.00;100000.47;1699954;84;21281;-60
2022/12/17 19:09:41;;;;;;;5.67;2.30;;;;;;;1.59;100.00;100000.97;1690392;84;21221;-61
2022/12/17 19:12:09;;;;;;;4.22;1.80;;;;;;;1.62;100.00;99997.62;1690674;84;21186;-59
2022/12/17 19:14:38;;;;;;;3.55;1.85;;;;;;;1.62;100.00;100008.42;1701693;84;21483;-60
2022/12/17 19:17:07;;;;;;;5.28;2.25;;;;;;;1.61;100.00;100010.77;1693343;84;21163;-60
2022/12/17 19:19:35;;;;;;;8.08;2.87;;;;;;;1.57;100.00;100015.12;1700057;84;21133;-60
2022/12/17 19:22:04;;;;;;;6.40;2.75;;;;;;;1.54;100.00;100015.42;1696111;84;21566;-60
2022/12/17 19:24:34;;;;;;;7.37;3.60;;;;;;;1.51;100.00;100025.17;1692992;84;21577;-60
2022/12/17 19:27:03;;;;;;;12.33;4.83;;;;;;;1.49;100.00;100042.02;1685333;84;21158;-60
2022/12/17 19:29:34;;;;;;;5.47;3.05;;;;;;;1.49;100.00;100062.77;1659297;85;21146;-60
2022/12/17 19:32:04;;;;;;;3.30;2.10;;;;;;;1.51;100.00;100068.36;1669581;85;21203;-60
2022/12/17 19:34:34;;;;;;;2.85;1.82;;;;;;;1.49;100.00;100061.41;1690443;84;21658;-61
2022/12/17 19:37:03;;;;;;;5.20;2.50;;;;;;;1.48;100.00;100073.20;1694677;84;21142;-60
2022/12/17 19:39:32;;;;;;;4.22;2.35;;;;;;;1.44;100.00;100080.75;1692837;84;21138;-59
2022/12/17 19:42:01;;;;;;;4.83;2.50;;;;;;;1.43;100.00;100089.84;1698496;84;21175;-60
2022/12/17 19:44:29;;;;;;;5.33;1.90;;;;;;;1.45;100.00;100095.95;1689553;84;21154;-60
2022/12/17 19:46:58;;;;;;;5.65;2.67;;;;;;;1.47;100.00;100103.91;1690254;84;21214;-62
2022/12/17 19:49:28;;;;;;;3.80;2.17;;;;;;;1.45;100.00;100108.09;1694912;84;21163;-61
2022/12/17 19:51:57;;;;;;;3.92;2.20;;;;;;;1.46;100.00;100104.90;1690826;84;21137;-61
2022/12/17 19:54:26;;;;;;;4.50;2.58;;;;;;;1.45;100.00;100117.55;1692934;84;21130;-60
2022/12/17 19:56:55;;;;;;;3.72;1.62;;;;;;;1.46;100.00;100116.55;1697867;84;21145;-59
2022/12/17 19:59:25;;;;;;;4.40;1.70;;;;;;;1.46;100.00;100113.84;1691116;84;21186;-60
2022/12/17 20:01:53;;;;;;;2.70;1.57;;;;;;;1.47;100.00;100118.75;1685329;84;21598;-61
2022/12/17 20:04:22;;;;;;;3.47;1.87;;;;;;;1.45;100.00;100123.45;1689352;84;21167;-61
2022/12/17 20:06:51;;;;;;;2.85;1.70;;;;;;;1.44;100.00;100132.04;1681226;84;21143;-61
2022/12/17 20:09:20;;;;;;;2.62;1.70;;;;;;;1.45;100.00;100134.24;1689814;84;21246;-61
2022/12/17 20:11:50;;;;;;;3.87;1.87;;;;;;;1.46;100.00;100139.49;1685978;84;21587;-61
2022/12/17 20:14:25;;;;;;;2.92;1.60;;;;;;;1.46;100.00;100139.49;1681293;84;21139;-61
2022/12/17 20:16:57;;;;;;;3.25;1.60;;;;;;;1.46;100.00;100152.14;1659081;85;21955;-60
2022/12/17 20:19:29;;;;;;;3.15;1.50;;;;;;;1.43;100.00;100161.88;1658898;85;21147;-60
2022/12/17 20:21:59;;;;;;;2.83;1.60;;;;;;;1.42;100.00;100171.83;1657442;85;21194;-61
2022/12/17 20:24:28;;;;;;;5.95;2.80;;;;;;;1.45;100.00;100174.73;1658407;85;21150;-61
2022/12/17 20:26:59;;;;;;;3.33;2.00;;;;;;;1.44;100.00;100174.38;1671623;85;21277;-60
2022/12/17 20:29:28;;;;;;;3.65;1.55;;;;;;;1.43;100.00;100170.83;1665842;85;21139;-61
2022/12/17 20:31:56;;;;;;;3.42;1.60;;;;;;;1.44;100.00;100181.98;1679636;85;21611;-62
2022/12/17 20:34:25;;;;;;;3.65;2.10;;;;;;;1.44;100.00;100195.98;1675106;85;21198;-59
2022/12/17 20:36:54;;;;;;;2.37;1.30;;;;;;;1.43;100.00;100207.27;1674340;85;21143;-60
2022/12/17 20:39:24;;;;;;;3.37;1.98;;;;;;;1.43;100.00;100208.62;1677253;85;21178;-59
2022/12/17 20:41:55;;;;;;;2.67;1.52;;;;;;;1.40;100.00;100208.05;1674862;85;21170;-60
2022/12/17 20:44:24;;;;;;;2.62;1.45;;;;;;;1.40;100.00;100218.36;1668988;85;21123;-60
2022/12/17 20:46:54;;;;;;;1.85;1.30;;;;;;;1.42;100.00;100216.86;1657532;85;21362;-60
2022/12/17 20:49:23;;;;;;;1.90;1.30;;;;;;;1.43;100.00;100220.77;1657404;85;21234;-61
2022/12/17 20:51:51;;;;;;;3.15;1.95;;;;;;;1.43;100.00;100219.42;1664559;85;21127;-60
2022/12/17 20:54:21;;;;;;;3.42;1.87;;;;;;;1.42;100.00;100223.11;1664583;85;21136;-61
2022/12/17 20:56:51;;;;;;;2.10;1.60;;;;;;;1.40;100.00;100224.25;1657640;85;21155;-59
2022/12/17 20:59:20;;;;;;;2.12;1.60;;;;;;;1.35;100.00;100227.38;1673871;85;21206;-60
2022/12/17 21:01:48;;;;;;;2.58;1.80;;;;;;;1.32;100.00;100230.87;1665352;85;21234;-60
2022/12/17 21:04:19;;;;;;;3.87;1.92;;;;;;;1.28;100.00;100234.31;1672732;85;21245;-61
2022/12/17 21:06:47;;;;;;;3.27;2.10;;;;;;;1.29;100.00;100241.42;1663391;84;21180;-60
2022/12/17 21:09:21;;;;;;;4.08;2.25;;;;;;;1.27;100.00;100246.11;1659849;85;21146;-60
2022/12/17 21:11:49;;;;;;;3.83;2.30;;;;;;;1.24;100.00;100253.98;1663874;85;21115;-59
2022/12/17 21:14:18;;;;;;;2.60;2.00;;;;;;;1.22;100.00;100244.33;1673013;84;21188;-61
2022/12/17 21:16:47;;;;;;;2.12;1.80;;;;;;;1.20;100.00;100262.50;1658409;85;21732;-61
2022/12/17 21:19:18;;;;;;;3.45;2.25;;;;;;;1.16;100.00;100268.68;1652604;85;21578;-60
2022/12/17 21:21:46;;;;;;;3.27;2.22;;;;;;;1.11;100.00;100275.50;1670292;84;21143;-61
2022/12/17 21:24:15;;;;;;;3.52;2.20;;;;;;;1.07;100.00;100281.67;1667342;85;21174;-60
2022/12/17 21:26:46;;;;;;;3.15;2.12;;;;;;;1.06;100.00;100290.75;1663234;85;21111;-60
2022/12/17 21:29:14;;;;;;;3.65;2.45;;;;;;;1.07;100.00;100293.80;1667185;84;21201;-60
2022/12/17 21:31:49;;;;;;;3.70;2.52;;;;;;;1.05;100.00;100297.64;1666044;85;21131;-60
2022/12/17 21:34:21;;;;;;;4.92;3.08;;;;;;;1.03;100.00;100293.73;1665012;84;21178;-60
2022/12/17 21:36:50;;;;;;;4.30;2.72;;;;;;;1.02;100.00;100287.13;1663911;84;21180;-61
2022/12/17 21:39:20;;;;;;;4.72;3.35;;;;;;;1.01;100.00;100300.25;1658056;85;21575;-59
2022/12/17 21:44:37;;;;;;;4.95;3.20;;;;;;;1.00;100.00;100313.39;1672103;85;21580;-61
2022/12/17 21:47:07;;;;;;;6.42;3.60;;;;;;;1.01;100.00;100320.48;1665437;85;21140;-60
2022/12/17 21:49:36;;;;;;;5.90;3.80;;;;;;;1.00;100.00;100320.98;1680386;85;21142;-59
2022/12/17 21:52:06;;;;;;;6.45;4.00;;;;;;;0.97;100.00;100338.80;1673156;85;21139;-59
2022/12/17 21:54:36;;;;;;;7.33;4.42;;;;;;;0.93;100.00;100344.11;1670125;85;21197;-59
2022/12/17 21:57:06;;;;;;;7.72;5.10;;;;;;;0.89;100.00;100344.88;1660695;85;21285;-60
2022/12/17 21:59:35;;;;;;;8.55;4.70;;;;;;;0.87;100.00;100343.31;1670340;85;21134;-58
2022/12/17 22:02:03;;;;;;;7.42;4.40;;;;;;;0.81;100.00;100352.80;1665912;85;21187;-60
2022/12/17 22:04:32;;;;;;;8.08;4.60;;;;;;;0.76;100.00;100364.49;1676028;85;21139;-60
2022/12/17 22:07:02;;;;;;;8.05;4.42;;;;;;;0.74;100.00;100359.73;1660829;85;21155;-60
2022/12/17 22:09:33;;;;;;;7.65;4.62;;;;;;;0.72;100.00;100365.75;1674685;85;21151;-59
2022/12/17 22:14:52;;;;;;;9.48;5.20;;;;;;;0.64;100.00;100381.72;1657525;85;21154;-56
2022/12/17 22:17:23;;;;;;;8.80;5.05;;;;;;;0.59;100.00;100399.65;1676678;84;21195;-56
2022/12/17 22:19:53;;;;;;;9.73;5.42;;;;;;;0.56;100.00;100402.61;1686009;84;21163;-56
2022/12/17 22:22:22;;;;;;;8.20;4.95;;;;;;;0.54;100.00;100406.42;1686271;84;21177;-56
2022/12/17 22:24:51;;;;;;;10.03;5.20;;;;;;;0.53;100.00;100410.11;1669170;84;21632;-57
2022/12/17 22:27:20;;;;;;;10.40;5.47;;;;;;;0.53;100.00;100426.28;1680650;85;21114;-57
2022/12/17 22:35:26;;;;;;;10.78;5.83;;;;;;;0.50;100.00;100426.55;1686571;84;21162;-56
2022/12/17 22:37:57;;;;;;;10.93;6.85;;;;;;;0.50;100.00;100434.14;1688776;84;21585;-56
2022/12/17 22:40:28;;;;;;;12.28;6.62;;;;;;;0.46;100.00;100448.02;1690197;84;21174;-56
2022/12/17 22:45:51;;;;;;;11.97;6.75;;;;;;;0.45;100.00;100459.30;1691539;84;21170;-55
2022/12/17 22:48:22;;;;;;;11.22;6.33;;;;;;;0.45;100.00;100453.05;1692433;84;21137;-55
2022/12/17 22:50:52;;;;;;;15.32;7.83;;;;;;;0.43;100.00;100453.18;1691514;84;21222;-57
2022/12/17 22:53:24;;;;;;;14.20;7.03;;;;;;;0.41;100.00;100455.64;1689698;84;21120;-56
2022/12/17 22:55:53;;;;;;;14.55;7.72;;;;;;;0.41;100.00;100443.52;1683381;84;21155;-56
2022/12/17 22:58:23;;;;;;;14.60;8.08;;;;;;;0.36;100.00;100465.47;1688535;84;21110;-56
2022/12/17 23:00:53;;;;;;;15.48;8.55;;;;;;;0.30;100.00;100467.34;1687091;84;21163;-56
2022/12/17 23:03:22;;;;;;;15.50;7.58;;;;;;;0.26;100.00;100473.97;1676494;85;21118;-57
2022/12/17 23:05:56;;;;;;;14.83;7.97;;;;;;;0.21;100.00;100480.25;1697839;84;21176;-55
2022/12/17 23:08:26;;;;;;;15.13;7.50;;;;;;;0.19;100.00;100495.69;1684087;84;21206;-56
2022/12/17 23:10:55;;;;;;;14.93;7.85;;;;;;;0.16;100.00;100499.49;1689301;84;21605;-56
2022/12/17 23:13:24;;;;;;;13.08;7.53;;;;;;;0.13;100.00;100503.79;1685480;84;21559;-56
2022/12/17 23:15:53;;;;;;;15.08;7.60;;;;;;;0.10;100.00;100509.93;1699983;84;21169;-57
2022/12/17 23:18:22;;;;;;;13.38;6.87;;;;;;;0.04;100.00;100508.60;1646762;84;21146;-57
2022/12/17 23:20:51;;;;;;;12.90;6.53;;;;;;;-0.01;99.81;100514.83;1694293;84;21228;-56
2022/12/17 23:23:21;;;;;;;12.80;7.05;;;;;;;-0.03;99.61;100508.23;1681737;84;21166;-57
2022/12/17 23:25:49;;;;;;;13.85;7.28;;;;;;;-0.06;99.33;100507.63;1698832;84;21562;-55
2022/12/17 23:28:18;;;;;;;14.33;7.17;;;;;;;-0.06;99.32;100511.66;1681646;84;21134;-57
2022/12/17 23:30:47;;;;;;;12.47;6.78;;;;;;;-0.08;99.12;100521.22;1698490;84;21162;-58
2022/12/17 23:33:16;;;;;;;13.05;6.83;;;;;;;-0.10;98.76;100527.22;1696952;84;21143;-58
2022/12/17 23:35:45;;;;;;;13.00;6.45;;;;;;;-0.11;98.73;100520.12;1699881;84;21161;-59
2022/12/17 23:38:15;;;;;;;15.00;7.60;;;;;;;-0.10;98.68;100533.95;1701356;84;21235;-57
2022/12/17 23:40:43;;;;;;;15.25;7.78;;;;;;;-0.09;98.69;100534.81;1680703;84;21587;-60
2022/12/17 23:43:12;;;;;;;15.20;7.58;;;;;;;-0.09;98.55;100538.84;1693714;84;21183;-58
2022/12/17 23:45:44;;;;;;;14.78;8.05;;;;;;;-0.09;98.49;100547.78;1698189;84;21126;-58
2022/12/17 23:48:13;;;;;;;15.60;7.62;;;;;;;-0.09;98.31;100554.52;1694859;84;21615;-58
2022/12/17 23:50:42;;;;;;;15.43;8.03;;;;;;;-0.11;98.08;100554.28;1691748;84;21157;-59
2022/12/17 23:53:12;;;;;;;16.05;8.23;;;;;;;-0.17;97.72;100558.82;1676246;85;21222;-58
2022/12/17 23:55:41;;;;;;;15.85;8.18;;;;;;;-0.19;97.81;100575.59;1658303;84;21135;-58
2022/12/17 23:58:10;;;;;;;18.30;7.83;;;;;;;-0.21;97.60;100576.20;1662814;85;21241;-58
